Time;durP1;ratioP1;P1;durP2;ratioP2;P2;SDS_P1;SDS_P2;PMS_P1;PMS_P2;Temp;Humidity;BMP_temperature;BMP_pressure;BME280_temperature;BME280_humidity;BME280_pressure;Samples;Min_cycle;Max_cycle;Signal;HPM_P1;HPM_P2
2023/05/19 00:02:14;;;;;;;5.73;2.07;;;12.90;94.40;;;;;;5073666;28;20209;-66
2023/05/19 00:04:43;;;;;;;6.40;2.00;;;13.00;94.50;;;;;;5073735;28;20258;-66
2023/05/19 00:07:11;;;;;;;9.50;2.40;;;13.00;94.40;;;;;;5073614;28;20558;-65
2023/05/19 00:09:38;;;;;;;4.30;1.90;;;13.00;94.40;;;;;;5073010;28;20743;-64
2023/05/19 00:12:05;;;;;;;3.83;2.00;;;13.10;94.30;;;;;;5073415;28;20622;-64
2023/05/19 00:14:32;;;;;;;7.87;2.00;;;13.20;94.20;;;;;;5073146;28;20607;-64
2023/05/19 00:17:00;;;;;;;7.07;2.23;;;13.30;94.20;;;;;;5073371;28;20251;-64
2023/05/19 00:19:31;;;;;;;7.33;2.00;;;13.30;94.20;;;;;;5073056;28;20200;-64
2023/05/19 00:21:59;;;;;;;5.27;2.27;;;13.20;94.30;;;;;;5073252;28;20620;-64
2023/05/19 00:24:25;;;;;;;6.40;2.40;;;13.30;94.50;;;;;;5073250;28;20673;-64
2023/05/19 00:26:52;;;;;;;6.07;2.27;;;13.30;94.50;;;;;;5073424;28;20265;-64
2023/05/19 00:29:19;;;;;;;6.30;2.60;;;13.30;94.50;;;;;;5073124;28;20282;-64
2023/05/19 00:31:45;;;;;;;5.73;1.90;;;13.30;94.50;;;;;;5072669;28;20665;-64
2023/05/19 00:34:12;;;;;;;5.27;1.90;;;13.30;94.80;;;;;;5072816;28;20668;-64
2023/05/19 00:36:39;;;;;;;6.93;2.33;;;13.30;94.70;;;;;;5072642;28;20720;-64
2023/05/19 00:39:07;;;;;;;6.57;2.40;;;13.30;94.70;;;;;;5072845;28;20665;-64
2023/05/19 00:41:33;;;;;;;6.97;2.20;;;13.30;94.60;;;;;;5072867;28;20204;-64
2023/05/19 00:44:00;;;;;;;6.60;2.00;;;13.30;94.70;;;;;;5073162;28;20207;-64
2023/05/19 00:46:27;;;;;;;5.20;2.13;;;13.30;94.80;;;;;;5072914;28;20263;-64
2023/05/19 00:48:54;;;;;;;4.03;1.77;;;13.40;94.70;;;;;;5073292;28;20216;-64
2023/05/19 00:51:21;;;;;;;5.53;2.10;;;13.40;94.70;;;;;;5072131;28;20215;-64
2023/05/19 00:53:50;;;;;;;5.97;2.20;;;13.50;94.70;;;;;;5072771;28;20692;-64
2023/05/19 00:56:20;;;;;;;3.93;2.20;;;13.60;94.70;;;;;;5072705;28;20934;-64
2023/05/19 00:58:47;;;;;;;3.77;1.67;;;13.60;94.70;;;;;;5072554;28;20236;-64
2023/05/19 01:01:15;;;;;;;5.93;2.20;;;13.70;94.60;;;;;;5072091;28;20209;-64
2023/05/19 01:03:44;;;;;;;7.10;2.53;;;13.80;94.60;;;;;;5072330;28;20204;-64
2023/05/19 01:06:10;;;;;;;3.57;2.03;;;13.80;94.60;;;;;;5072414;28;20281;-64
2023/05/19 01:08:38;;;;;;;5.90;2.00;;;13.80;94.80;;;;;;5072252;28;20232;-64
2023/05/19 01:11:06;;;;;;;3.70;1.73;;;13.80;94.80;;;;;;5071997;28;20202;-64
2023/05/19 01:13:35;;;;;;;3.97;1.90;;;13.70;94.80;;;;;;5072066;28;20681;-64
2023/05/19 01:16:07;;;;;;;4.37;2.07;;;13.70;95.20;;;;;;5072072;28;20235;-64
2023/05/19 01:18:43;;;;;;;6.60;2.20;;;13.70;95.20;;;;;;5072128;28;20257;-64
2023/05/19 01:21:36;;;;;;;5.17;1.90;;;13.70;95.40;;;;;;5072084;28;20201;-64
2023/05/19 01:24:23;;;;;;;7.10;2.40;;;13.60;95.80;;;;;;5072102;28;20201;-64
2023/05/19 01:27:18;;;;;;;5.07;1.60;;;13.40;96.00;;;;;;5072152;28;20320;-66
2023/05/19 01:30:14;;;;;;;5.40;2.00;;;13.50;96.10;;;;;;5072019;28;20225;-66
2023/05/19 01:32:44;;;;;;;4.27;2.07;;;13.70;96.10;;;;;;5072133;28;20209;-65
2023/05/19 01:35:15;;;;;;;6.60;2.57;;;13.70;95.90;;;;;;5072346;28;20260;-65
2023/05/19 01:37:44;;;;;;;5.43;2.00;;;13.70;95.90;;;;;;5072365;28;20227;-65
2023/05/19 01:40:11;;;;;;;4.50;2.00;;;13.70;96.10;;;;;;5072104;28;20247;-65
2023/05/19 01:42:39;;;;;;;5.07;1.97;;;13.70;96.30;;;;;;5072173;28;20200;-65
2023/05/19 01:45:09;;;;;;;7.97;2.03;;;13.70;96.40;;;;;;5071874;28;20237;-64
2023/05/19 01:47:37;;;;;;;6.13;2.00;;;13.80;96.50;;;;;;5071494;28;20300;-62
2023/05/19 01:50:06;;;;;;;4.57;1.90;;;13.90;96.40;;;;;;5071614;28;20315;-62
2023/05/19 01:52:33;;;;;;;5.07;2.13;;;13.90;96.40;;;;;;5071759;28;20205;-62
2023/05/19 01:55:00;;;;;;;3.50;1.70;;;13.90;96.60;;;;;;5072645;28;20721;-62
2023/05/19 01:57:33;;;;;;;5.53;2.00;;;14.00;96.60;;;;;;5072514;28;20208;-62
2023/05/19 02:00:11;;;;;;;4.87;1.90;;;14.00;96.70;;;;;;5072295;28;20727;-62
2023/05/19 02:02:48;;;;;;;7.07;1.90;;;13.90;96.90;;;;;;5074485;28;20200;-63
2023/05/19 02:05:27;;;;;;;3.30;1.90;;;14.00;97.00;;;;;;5076186;28;20224;-63
2023/05/19 02:08:02;;;;;;;9.03;2.20;;;14.00;96.90;;;;;;5076017;28;20266;-63
2023/05/19 02:10:30;;;;;;;5.07;2.27;;;14.00;96.80;;;;;;5075656;28;20302;-62
2023/05/19 02:13:01;;;;;;;6.63;2.20;;;13.90;96.90;;;;;;5075879;28;20273;-62
2023/05/19 02:15:33;;;;;;;5.53;2.30;;;13.80;97.00;;;;;;5075838;28;20231;-65
2023/05/19 02:18:03;;;;;;;4.77;2.47;;;13.70;97.30;;;;;;5075562;28;20586;-64
2023/05/19 02:20:31;;;;;;;4.13;2.30;;;13.60;97.40;;;;;;5075176;28;20669;-64
2023/05/19 02:22:58;;;;;;;4.33;2.27;;;13.50;97.60;;;;;;5075393;28;20211;-63
2023/05/19 02:25:25;;;;;;;7.70;2.80;;;13.40;97.90;;;;;;5075436;28;20635;-63
2023/05/19 02:27:52;;;;;;;6.27;2.17;;;13.30;98.30;;;;;;5075405;28;20215;-63
2023/05/19 02:30:19;;;;;;;6.03;2.30;;;13.20;98.60;;;;;;5075373;28;20220;-63
2023/05/19 02:32:46;;;;;;;5.10;1.93;;;13.10;98.60;;;;;;5075405;28;20208;-65
2023/05/19 02:35:13;;;;;;;4.20;2.10;;;13.10;99.10;;;;;;5075183;28;20260;-63
2023/05/19 02:37:41;;;;;;;5.40;2.37;;;13.00;99.20;;;;;;5075390;28;20254;-63
2023/05/19 02:40:09;;;;;;;5.67;2.23;;;12.90;99.40;;;;;;5075199;28;20258;-63
2023/05/19 02:42:36;;;;;;;4.67;2.00;;;12.90;99.60;;;;;;5075364;28;20209;-64
2023/05/19 02:45:03;;;;;;;4.97;2.37;;;12.90;99.70;;;;;;5075073;28;20235;-63
2023/05/19 02:47:30;;;;;;;5.97;2.50;;;12.90;99.90;;;;;;5074850;28;20208;-63
2023/05/19 02:49:56;;;;;;;7.50;2.20;;;12.90;99.90;;;;;;5074605;28;20221;-64
2023/05/19 02:52:23;;;;;;;4.73;2.10;;;12.80;99.90;;;;;;5074980;28;20246;-63
2023/05/19 02:54:51;;;;;;;4.17;2.20;;;12.80;99.90;;;;;;5074693;28;20594;-63
2023/05/19 02:57:18;;;;;;;5.77;2.23;;;12.80;99.90;;;;;;5074838;28;20209;-63
2023/05/19 02:59:44;;;;;;;4.80;2.20;;;12.70;99.90;;;;;;5074515;28;20628;-64
2023/05/19 03:02:11;;;;;;;5.23;2.20;;;12.70;99.90;;;;;;5074685;28;20205;-63
2023/05/19 03:04:40;;;;;;;5.37;2.60;;;12.70;99.90;;;;;;5074552;28;20209;-62
2023/05/19 03:07:09;;;;;;;5.87;2.30;;;12.70;99.90;;;;;;5074745;28;20201;-65
2023/05/19 03:09:36;;;;;;;7.23;2.33;;;12.60;99.90;;;;;;5074599;28;20311;-64
2023/05/19 03:12:06;;;;;;;28.53;22.03;;;12.60;99.90;;;;;;5074485;28;20208;-65
2023/05/19 03:14:33;;;;;;;7.00;4.10;;;12.60;99.90;;;;;;5073566;28;20689;-64
2023/05/19 03:17:10;;;;;;;5.67;2.83;;;12.60;99.90;;;;;;5077253;28;20212;-68
2023/05/19 03:19:42;;;;;;;4.07;2.23;;;12.60;99.90;;;;;;5076512;28;20197;-65
2023/05/19 03:22:09;;;;;;;4.53;1.90;;;12.50;99.90;;;;;;5074475;28;20628;-63
2023/05/19 03:24:35;;;;;;;5.70;2.50;;;12.50;99.90;;;;;;5074302;28;20209;-64
2023/05/19 03:27:05;;;;;;;16.20;9.70;;;12.50;99.90;;;;;;5074690;28;20233;-66
2023/05/19 03:29:31;;;;;;;6.07;2.93;;;12.50;99.90;;;;;;5074167;28;20316;-66
2023/05/19 03:31:58;;;;;;;5.87;3.10;;;12.50;99.90;;;;;;5074270;28;20207;-66
2023/05/19 03:34:25;;;;;;;5.13;2.60;;;12.50;99.90;;;;;;5074588;28;20209;-65
2023/05/19 03:36:51;;;;;;;6.53;2.80;;;12.50;99.90;;;;;;5074328;28;20254;-66
2023/05/19 03:39:18;;;;;;;6.43;2.50;;;12.40;99.90;;;;;;5074165;28;20568;-66
2023/05/19 03:41:45;;;;;;;4.80;2.40;;;12.40;99.90;;;;;;5073992;28;20231;-67
2023/05/19 03:44:13;;;;;;;7.23;2.60;;;12.20;99.90;;;;;;5073860;28;20213;-67
2023/05/19 03:46:39;;;;;;;7.17;2.50;;;12.00;99.90;;;;;;5073849;28;20228;-67
2023/05/19 03:49:06;;;;;;;6.73;2.17;;;11.90;99.90;;;;;;5074202;28;20220;-67
2023/05/19 03:51:33;;;;;;;5.97;2.83;;;11.70;99.90;;;;;;5073944;28;20426;-68
2023/05/19 03:54:00;;;;;;;6.93;2.77;;;11.60;99.90;;;;;;5073871;28;20205;-67
2023/05/19 03:56:27;;;;;;;8.00;2.60;;;11.60;99.90;;;;;;5073755;28;20236;-67
2023/05/19 03:58:54;;;;;;;3.67;2.00;;;11.60;99.90;;;;;;5073772;28;20201;-67
2023/05/19 04:01:22;;;;;;;5.33;2.60;;;11.70;99.90;;;;;;5073711;28;20224;-68
2023/05/19 04:03:49;;;;;;;6.47;2.70;;;11.70;99.90;;;;;;5073740;28;20205;-68
2023/05/19 04:06:16;;;;;;;5.60;2.50;;;11.80;99.90;;;;;;5073521;28;20232;-67
2023/05/19 04:08:43;;;;;;;6.80;2.47;;;11.80;99.90;;;;;;5073538;28;20209;-67
2023/05/19 04:11:10;;;;;;;7.90;2.43;;;11.80;99.90;;;;;;5073065;28;20278;-67
2023/05/19 04:13:37;;;;;;;4.33;2.33;;;11.80;99.90;;;;;;5073655;28;20628;-67
2023/05/19 04:16:04;;;;;;;5.87;2.70;;;11.80;99.90;;;;;;5073445;28;20646;-67
2023/05/19 04:18:32;;;;;;;5.23;2.53;;;11.80;99.90;;;;;;5073240;28;20672;-67
2023/05/19 04:21:00;;;;;;;7.33;2.73;;;11.70;99.90;;;;;;5073040;28;20201;-67
2023/05/19 04:23:27;;;;;;;5.67;3.07;;;11.70;99.90;;;;;;5073291;28;20232;-67
2023/05/19 04:25:55;;;;;;;7.50;2.70;;;11.90;99.90;;;;;;5072692;28;20240;-67
2023/05/19 04:28:22;;;;;;;5.73;2.47;;;12.00;99.90;;;;;;5073356;28;20200;-67
2023/05/19 04:30:49;;;;;;;7.23;2.40;;;12.00;99.90;;;;;;5072955;28;20235;-67
2023/05/19 04:33:16;;;;;;;5.90;2.60;;;12.00;99.90;;;;;;5073012;28;20212;-67
2023/05/19 04:35:44;;;;;;;6.50;2.50;;;12.00;99.90;;;;;;5072815;28;20312;-67
2023/05/19 04:38:11;;;;;;;5.67;2.30;;;12.10;99.90;;;;;;5072798;28;20672;-67
2023/05/19 04:40:40;;;;;;;5.97;2.40;;;12.10;99.90;;;;;;5072810;28;20228;-67
2023/05/19 04:43:08;;;;;;;4.90;2.37;;;12.20;99.90;;;;;;5072991;28;20318;-67
2023/05/19 04:45:36;;;;;;;4.20;2.60;;;12.40;99.90;;;;;;5072718;28;20224;-67
2023/05/19 04:48:03;;;;;;;6.63;2.37;;;12.50;99.90;;;;;;5072798;28;20251;-67
2023/05/19 04:50:31;;;;;;;4.77;2.60;;;12.80;99.90;;;;;;5072473;28;20228;-67
2023/05/19 04:52:59;;;;;;;5.50;2.43;;;13.10;99.90;;;;;;5072804;28;20232;-67
2023/05/19 04:55:25;;;;;;;4.90;2.07;;;13.30;99.90;;;;;;5072778;28;20244;-67
2023/05/19 04:57:52;;;;;;;4.07;2.30;;;13.40;99.90;;;;;;5072789;28;20209;-67
2023/05/19 05:00:20;;;;;;;6.60;2.30;;;13.50;99.90;;;;;;5072368;28;20669;-67
2023/05/19 05:02:47;;;;;;;6.87;2.60;;;13.50;99.90;;;;;;5072276;28;20209;-67
2023/05/19 05:05:14;;;;;;;4.07;2.20;;;13.50;99.90;;;;;;5072098;28;20443;-67
2023/05/19 05:07:41;;;;;;;6.67;2.50;;;13.80;99.90;;;;;;5072527;28;20209;-67
2023/05/19 05:10:10;;;;;;;7.63;2.70;;;14.00;99.90;;;;;;5071775;28;20708;-66
2023/05/19 05:12:37;;;;;;;6.57;2.07;;;14.20;99.90;;;;;;5072298;28;20212;-66
2023/05/19 05:15:05;;;;;;;5.87;2.47;;;14.40;99.90;;;;;;5072342;28;20228;-66
2023/05/19 05:17:34;;;;;;;5.93;2.30;;;14.60;99.90;;;;;;5072584;28;20204;-68
2023/05/19 05:20:01;;;;;;;8.60;2.20;;;14.80;99.90;;;;;;5071618;28;20212;-68
2023/05/19 05:22:28;;;;;;;6.33;2.40;;;15.00;99.90;;;;;;5072379;28;20209;-66
2023/05/19 05:24:56;;;;;;;5.17;2.13;;;15.20;99.90;;;;;;5072226;28;20228;-67
2023/05/19 05:27:24;;;;;;;5.67;2.33;;;15.40;99.90;;;;;;5072112;28;20208;-65
2023/05/19 05:29:52;;;;;;;7.53;2.30;;;16.10;99.90;;;;;;5071877;28;20229;-68
2023/05/19 05:32:19;;;;;;;4.90;2.10;;;16.90;98.50;;;;;;5071812;28;20216;-67
2023/05/19 05:34:46;;;;;;;5.35;2.50;;;17.80;97.30;;;;;;5071621;28;20208;-67
2023/05/19 05:37:12;;;;;;;5.47;2.28;;;18.90;95.00;;;;;;5071487;28;20214;-68
2023/05/19 05:39:39;;;;;;;4.80;2.00;;;19.80;93.20;;;;;;5071917;28;20300;-68
2023/05/19 05:42:07;;;;;;;5.38;2.45;;;20.30;91.80;;;;;;5071487;28;20572;-67
2023/05/19 05:44:36;;;;;;;5.28;2.28;;;20.10;91.50;;;;;;5071782;28;20227;-67
2023/05/19 05:47:03;;;;;;;5.50;2.25;;;19.90;91.90;;;;;;5071595;28;20209;-67
2023/05/19 05:49:30;;;;;;;8.65;2.50;;;19.90;91.20;;;;;;5071760;28;20201;-67
2023/05/19 05:51:58;;;;;;;9.18;2.58;;;19.90;90.80;;;;;;5071949;28;20258;-68
2023/05/19 05:54:25;;;;;;;5.10;2.60;;;20.30;90.60;;;;;;5072114;28;20205;-66
2023/05/19 05:56:52;;;;;;;3.97;2.10;;;20.90;89.20;;;;;;5071823;28;20640;-67
2023/05/19 05:59:19;;;;;;;5.72;2.38;;;21.50;87.20;;;;;;5071766;28;20204;-68
2023/05/19 06:01:47;;;;;;;4.10;2.25;;;21.70;86.40;;;;;;5071986;28;20212;-67
2023/05/19 06:04:13;;;;;;;7.82;2.55;;;22.10;85.80;;;;;;5072677;28;20588;-67
2023/05/19 06:06:41;;;;;;;4.57;2.25;;;22.80;83.60;;;;;;5072332;28;20220;-68
2023/05/19 06:09:07;;;;;;;6.57;2.40;;;23.60;79.80;;;;;;5073008;28;20201;-68
2023/05/19 06:11:34;;;;;;;4.82;2.05;;;24.20;77.00;;;;;;5072330;28;20238;-67
2023/05/19 06:14:01;;;;;;;6.93;2.58;;;24.70;76.90;;;;;;5071670;28;20204;-67
2023/05/19 06:16:27;;;;;;;8.40;2.25;;;25.30;73.80;;;;;;5071781;28;20227;-66
2023/05/19 06:18:55;;;;;;;6.88;2.42;;;25.90;71.40;;;;;;5071783;28;20247;-67
2023/05/19 06:21:22;;;;;;;5.80;2.42;;;26.30;69.60;;;;;;5071531;28;20209;-66
2023/05/19 06:23:48;;;;;;;6.68;2.38;;;26.40;68.70;;;;;;5071668;28;20216;-66
2023/05/19 06:26:15;;;;;;;5.35;2.25;;;26.40;68.30;;;;;;5071739;28;20233;-66
2023/05/19 06:28:42;;;;;;;5.72;2.33;;;26.60;67.60;;;;;;5071824;28;20295;-66
2023/05/19 06:31:08;;;;;;;4.65;2.50;;;26.60;66.40;;;;;;5071708;28;20229;-66
2023/05/19 06:33:35;;;;;;;7.18;2.38;;;26.70;65.90;;;;;;5071850;28;20208;-67
2023/05/19 06:36:04;;;;;;;8.50;2.70;;;27.10;64.30;;;;;;5071353;28;20225;-66
2023/05/19 06:38:31;;;;;;;6.75;2.20;;;26.90;64.10;;;;;;5071633;28;20269;-67
2023/05/19 06:40:58;;;;;;;6.32;2.50;;;26.70;64.50;;;;;;5071264;28;20197;-68
2023/05/19 06:43:24;;;;;;;5.10;2.30;;;26.60;64.10;;;;;;5071006;28;20207;-69
2023/05/19 06:45:51;;;;;;;5.72;2.75;;;26.30;64.50;;;;;;5071029;28;20225;-68
2023/05/19 06:48:18;;;;;;;6.03;2.72;;;26.20;63.60;;;;;;5072531;28;20236;-68
2023/05/19 06:50:44;;;;;;;6.93;2.40;;;25.60;64.80;;;;;;5074854;28;20217;-67
2023/05/19 06:53:12;;;;;;;7.22;2.40;;;24.80;66.90;;;;;;5074800;28;20558;-68
2023/05/19 06:55:39;;;;;;;5.63;2.03;;;24.20;67.80;;;;;;5074600;28;20232;-67
2023/05/19 06:58:06;;;;;;;6.97;2.15;;;23.50;69.00;;;;;;5074838;28;20213;-68
2023/05/19 07:00:32;;;;;;;5.90;2.38;;;22.50;71.10;;;;;;5074506;28;20201;-64
2023/05/19 07:02:59;;;;;;;3.78;2.15;;;21.40;74.00;;;;;;5074835;28;20208;-64
2023/05/19 07:05:26;;;;;;;8.38;2.70;;;20.40;76.60;;;;;;5074402;28;20221;-61
2023/05/19 07:07:52;;;;;;;3.95;2.25;;;19.80;78.80;;;;;;5074873;28;20684;-62
2023/05/19 07:10:21;;;;;;;5.18;2.40;;;19.40;80.60;;;;;;5074078;28;20278;-63
2023/05/19 07:12:47;;;;;;;6.03;2.40;;;19.10;81.80;;;;;;5074339;28;20668;-63
2023/05/19 07:15:14;;;;;;;3.53;2.00;;;19.00;82.30;;;;;;5074421;28;20229;-63
2023/05/19 07:17:41;;;;;;;6.15;2.63;;;18.90;83.00;;;;;;5074450;28;20254;-62
2023/05/19 07:20:09;;;;;;;6.75;2.67;;;18.80;83.70;;;;;;5074284;28;20205;-64
2023/05/19 07:22:37;;;;;;;5.40;2.58;;;18.70;84.10;;;;;;5074542;28;20286;-63
2023/05/19 07:25:04;;;;;;;4.00;2.00;;;18.60;84.30;;;;;;5074703;28;20251;-63
2023/05/19 07:27:32;;;;;;;7.88;2.72;;;18.50;85.00;;;;;;5074437;28;20205;-64
2023/05/19 07:29:59;;;;;;;5.63;2.40;;;18.30;85.60;;;;;;5074163;28;20266;-63
2023/05/19 07:32:25;;;;;;;4.72;2.17;;;18.30;86.00;;;;;;5073955;28;20225;-63
2023/05/19 07:34:52;;;;;;;7.30;2.10;;;18.10;86.10;;;;;;5074063;28;20252;-63
2023/05/19 07:37:19;;;;;;;5.03;2.38;;;18.00;86.80;;;;;;5074319;28;20212;-63
2023/05/19 07:39:46;;;;;;;8.43;2.35;;;17.90;87.20;;;;;;5074185;28;20258;-62
2023/05/19 07:42:12;;;;;;;5.25;2.20;;;17.80;87.60;;;;;;5073957;28;20205;-63
2023/05/19 07:44:40;;;;;;;5.13;2.67;;;17.70;88.60;;;;;;5073991;28;20310;-63
2023/05/19 07:47:07;;;;;;;7.50;2.22;;;17.70;89.10;;;;;;5074003;28;20212;-64
2023/05/19 07:49:33;;;;;;;5.45;2.25;;;17.70;89.60;;;;;;5073847;28;20245;-63
2023/05/19 07:52:00;;;;;;;6.47;2.47;;;17.70;90.40;;;;;;5073409;28;20274;-62
2023/05/19 07:54:27;;;;;;;6.40;2.20;;;17.90;89.70;;;;;;5073381;28;20692;-63
2023/05/19 07:56:53;;;;;;;3.70;2.10;;;18.00;89.90;;;;;;5074206;28;20212;-62
2023/05/19 07:59:20;;;;;;;5.97;2.20;;;18.00;89.60;;;;;;5073384;28;20209;-63
2023/05/19 08:01:49;;;;;;;5.40;2.22;;;17.80;89.70;;;;;;5073152;28;20205;-62
2023/05/19 08:04:15;;;;;;;6.57;2.50;;;17.70;90.20;;;;;;5073629;28;20303;-63
2023/05/19 08:06:43;;;;;;;6.70;2.53;;;17.60;90.60;;;;;;5073241;28;20708;-62
2023/05/19 08:09:10;;;;;;;6.00;2.65;;;17.50;90.60;;;;;;5073711;28;20743;-61
2023/05/19 08:11:37;;;;;;;4.80;1.98;;;17.50;90.50;;;;;;5073420;28;20720;-62
2023/05/19 08:14:04;;;;;;;5.07;2.33;;;17.60;90.80;;;;;;5073494;28;20292;-64
2023/05/19 08:16:31;;;;;;;5.78;2.75;;;17.70;90.90;;;;;;5075169;28;20708;-61
2023/05/19 08:19:01;;;;;;;4.30;2.33;;;17.70;90.90;;;;;;5074621;28;20209;-61
2023/05/19 08:21:28;;;;;;;5.00;2.53;;;17.90;91.00;;;;;;5074866;28;20208;-62
2023/05/19 08:23:55;;;;;;;6.32;2.75;;;18.00;90.70;;;;;;5074520;28;20204;-71
2023/05/19 08:26:22;;;;;;;4.15;2.28;;;18.00;90.90;;;;;;5073438;28;20319;-64
2023/05/19 08:28:49;;;;;;;7.57;2.40;;;18.00;90.90;;;;;;5073214;28;20236;-66
2023/05/19 08:31:17;;;;;;;8.77;2.47;;;18.00;91.00;;;;;;5072986;28;20228;-64
2023/05/19 08:33:44;;;;;;;4.57;2.10;;;18.00;91.10;;;;;;5072733;28;20208;-65
2023/05/19 08:36:12;;;;;;;8.32;2.60;;;17.90;90.60;;;;;;5073358;28;20256;-68
2023/05/19 08:38:39;;;;;;;7.32;2.88;;;18.00;91.10;;;;;;5074257;28;20258;-67
2023/05/19 08:41:06;;;;;;;6.47;2.70;;;18.00;90.90;;;;;;5073489;28;20208;-67
2023/05/19 08:43:33;;;;;;;6.72;2.75;;;18.00;91.00;;;;;;5066339;28;20963;-66
2023/05/19 08:46:00;;;;;;;8.07;2.65;;;17.80;91.10;;;;;;5072940;28;20574;-67
2023/05/19 08:48:30;;;;;;;7.90;2.70;;;17.60;91.20;;;;;;5072513;28;20336;-65
2023/05/19 08:51:04;;;;;;;6.72;2.60;;;17.60;91.40;;;;;;5064551;28;20225;-65
2023/05/19 08:53:37;;;;;;;6.75;2.50;;;17.60;91.80;;;;;;5063094;28;20204;-68
2023/05/19 08:56:09;;;;;;;7.07;2.20;;;17.50;91.60;;;;;;5055415;28;20237;-68
2023/05/19 08:58:38;;;;;;;7.05;2.47;;;17.70;91.60;;;;;;5052277;28;20304;-65
2023/05/19 09:01:07;;;;;;;5.50;2.60;;;17.80;91.20;;;;;;5055267;28;20765;-68
2023/05/19 09:03:37;;;;;;;3.20;2.30;;;18.00;91.40;;;;;;5064115;28;20193;-70
2023/05/19 09:06:05;;;;;;;3.83;2.20;;;18.10;91.30;;;;;;5072508;28;20313;-67
2023/05/19 09:08:33;;;;;;;7.95;2.47;;;18.20;91.10;;;;;;5072776;28;20250;-69
2023/05/19 09:11:00;;;;;;;4.10;2.20;;;18.30;90.90;;;;;;5071898;28;20220;-64
2023/05/19 09:13:27;;;;;;;8.57;3.05;;;18.20;90.70;;;;;;5071971;28;20213;-65
2023/05/19 09:15:55;;;;;;;7.15;2.30;;;18.10;90.90;;;;;;5072207;28;20229;-63
2023/05/19 09:18:24;;;;;;;6.72;2.30;;;18.00;91.10;;;;;;5057973;28;20271;-67
2023/05/19 09:20:58;;;;;;;7.13;3.05;;;18.10;91.50;;;;;;5052179;28;20586;-66
2023/05/19 09:23:28;;;;;;;8.90;2.60;;;18.20;91.20;;;;;;5052844;28;20232;-68
2023/05/19 09:25:56;;;;;;;5.30;2.55;;;18.40;90.90;;;;;;5052359;28;20261;-67
2023/05/19 09:28:24;;;;;;;6.15;2.58;;;18.50;90.50;;;;;;5052853;28;20297;-68
2023/05/19 09:31:02;;;;;;;5.93;2.55;;;18.40;90.50;;;;;;5052621;28;20292;-68
2023/05/19 09:33:29;;;;;;;8.07;2.85;;;18.40;91.30;;;;;;5052063;28;20602;-65
2023/05/19 09:35:56;;;;;;;6.50;2.85;;;18.50;91.10;;;;;;5053870;28;20225;-67
2023/05/19 09:38:24;;;;;;;7.97;2.15;;;18.60;90.80;;;;;;5052358;28;20570;-65
2023/05/19 09:40:52;;;;;;;4.78;2.35;;;18.80;90.50;;;;;;5052245;28;20623;-66
2023/05/19 09:43:21;;;;;;;6.03;2.40;;;18.80;90.30;;;;;;5052511;28;20220;-67
2023/05/19 09:45:48;;;;;;;8.50;2.58;;;18.70;90.50;;;;;;5068753;28;20229;-67
2023/05/19 09:48:15;;;;;;;5.30;2.60;;;18.90;90.30;;;;;;5072206;28;20254;-67
2023/05/19 09:50:44;;;;;;;6.05;2.72;;;18.80;90.30;;;;;;5071395;28;20205;-64
2023/05/19 09:53:13;;;;;;;8.07;2.55;;;18.60;90.40;;;;;;5072354;28;20411;-65
2023/05/19 09:55:40;;;;;;;8.75;2.90;;;18.60;90.40;;;;;;5071837;28;20233;-68
2023/05/19 09:58:08;;;;;;;7.03;3.25;;;18.80;90.60;;;;;;5072085;28;20337;-73
2023/05/19 10:00:38;;;;;;;5.28;2.35;;;18.90;90.30;;;;;;5071854;28;20634;-72
2023/05/19 10:03:05;;;;;;;7.88;2.60;;;18.70;90.40;;;;;;5073053;28;20204;-70
2023/05/19 10:05:32;;;;;;;5.03;2.13;;;18.70;90.50;;;;;;5072484;28;20229;-70
2023/05/19 10:08:00;;;;;;;6.05;2.70;;;18.50;90.50;;;;;;5072617;28;20201;-69
2023/05/19 10:10:28;;;;;;;7.80;2.20;;;18.30;90.90;;;;;;5071981;28;20200;-69
2023/05/19 10:12:55;;;;;;;8.82;2.63;;;18.00;91.30;;;;;;5071539;28;20484;-70
2023/05/19 10:15:23;;;;;;;6.60;2.60;;;17.80;91.80;;;;;;5071779;28;20303;-69
2023/05/19 10:17:51;;;;;;;5.82;2.88;;;17.70;92.00;;;;;;5071435;28;20534;-72
2023/05/19 10:20:18;;;;;;;5.22;2.47;;;17.90;91.70;;;;;;5071959;28;20205;-69
2023/05/19 10:22:47;;;;;;;6.20;2.28;;;18.20;91.20;;;;;;5072036;28;20228;-69
2023/05/19 10:25:17;;;;;;;7.20;2.80;;;18.50;91.10;;;;;;5075701;28;20267;-71
2023/05/19 10:28:02;;;;;;;4.05;2.20;;;18.80;90.50;;;;;;5076254;28;20208;-72
2023/05/19 10:30:31;;;;;;;7.32;2.72;;;19.00;90.40;;;;;;5075555;28;20204;-70
2023/05/19 10:33:01;;;;;;;7.22;2.35;;;19.10;90.40;;;;;;5075611;28;20708;-70
2023/05/19 10:35:50;;;;;;;7.95;2.88;;;18.90;90.20;;;;;;5075429;28;20278;-70
2023/05/19 10:38:26;;;;;;;5.80;2.30;;;18.70;90.20;;;;;;5075682;28;20246;-69
2023/05/19 10:41:00;;;;;;;5.80;2.40;;;18.70;90.60;;;;;;5076470;28;20213;-71
2023/05/19 10:43:44;;;;;;;6.40;2.40;;;18.40;90.60;;;;;;5077155;28;20205;-69
2023/05/19 10:46:11;;;;;;;5.72;2.75;;;18.20;90.60;;;;;;5075734;28;20225;-70
2023/05/19 10:48:44;;;;;;;8.18;2.63;;;18.10;91.10;;;;;;5075906;28;20209;-69
2023/05/19 10:51:11;;;;;;;7.57;2.58;;;18.00;91.10;;;;;;5074737;28;20208;-70
2023/05/19 10:53:44;;;;;;;4.28;2.53;;;18.00;91.20;;;;;;5075308;28;20218;-70
2023/05/19 10:56:12;;;;;;;8.68;3.03;;;18.00;91.20;;;;;;5075376;28;20233;-69
2023/05/19 10:58:54;;;;;;;4.72;2.53;;;17.90;91.60;;;;;;5075214;28;20258;-71
2023/05/19 11:01:23;;;;;;;6.30;2.40;;;17.80;91.70;;;;;;5073185;28;20209;-70
2023/05/19 11:03:52;;;;;;;5.68;2.35;;;17.80;91.50;;;;;;5075094;28;20208;-70
2023/05/19 11:06:21;;;;;;;7.07;2.55;;;17.90;91.70;;;;;;5074981;28;20247;-69
2023/05/19 11:08:53;;;;;;;6.70;2.50;;;18.10;91.60;;;;;;5075243;28;20677;-68
2023/05/19 11:11:19;;;;;;;7.13;2.60;;;18.30;91.50;;;;;;5075542;28;20213;-69
2023/05/19 11:13:48;;;;;;;6.68;3.20;;;18.50;91.10;;;;;;5076249;28;20205;-69
2023/05/19 11:16:17;;;;;;;4.75;2.60;;;18.40;91.30;;;;;;5076162;28;20286;-69
2023/05/19 11:18:48;;;;;;;6.60;2.28;;;18.40;91.40;;;;;;5075610;28;20201;-69
2023/05/19 11:21:16;;;;;;;5.10;2.72;;;18.60;91.00;;;;;;5074622;28;20220;-69
2023/05/19 11:23:43;;;;;;;5.70;2.33;;;18.70;90.80;;;;;;5074601;28;20201;-69
2023/05/19 11:26:09;;;;;;;5.38;2.40;;;18.70;90.60;;;;;;5074211;28;20331;-70
2023/05/19 11:28:37;;;;;;;5.50;2.60;;;18.70;90.50;;;;;;5074364;28;20209;-70
2023/05/19 11:31:06;;;;;;;5.85;2.70;;;18.90;90.40;;;;;;5073965;28;20665;-70
2023/05/19 11:33:33;;;;;;;8.17;2.90;;;19.20;90.30;;;;;;5068456;28;20490;-67
2023/05/19 11:36:00;;;;;;;6.78;2.70;;;19.50;88.50;;;;;;5072714;28;20232;-69
2023/05/19 11:38:29;;;;;;;7.95;2.70;;;19.60;88.60;;;;;;5073507;28;20215;-67
2023/05/19 11:40:56;;;;;;;9.73;3.03;;;19.60;88.00;;;;;;5073583;28;20646;-68
2023/05/19 11:43:24;;;;;;;4.53;2.30;;;19.70;87.50;;;;;;5072460;28;20208;-70
2023/05/19 11:45:50;;;;;;;7.15;2.85;;;19.70;87.20;;;;;;5063392;28;20225;-69
2023/05/19 11:48:21;;;;;;;4.30;2.47;;;19.80;87.60;;;;;;5074066;28;20231;-68
2023/05/19 11:50:47;;;;;;;6.00;2.50;;;19.80;87.40;;;;;;5073942;28;20215;-69
2023/05/19 11:53:15;;;;;;;4.38;2.38;;;19.70;87.40;;;;;;5074042;28;20228;-69
2023/05/19 11:55:45;;;;;;;4.97;2.58;;;19.90;87.20;;;;;;5073660;28;20323;-68
2023/05/19 11:58:12;;;;;;;5.75;2.90;;;20.00;86.30;;;;;;5073714;28;20687;-68
2023/05/19 12:00:40;;;;;;;5.00;2.33;;;20.10;86.00;;;;;;5073576;28;20213;-68
2023/05/19 12:03:07;;;;;;;9.50;3.00;;;19.90;86.40;;;;;;5073909;28;20216;-69
2023/05/19 12:05:37;;;;;;;4.97;2.20;;;19.90;86.40;;;;;;5073593;28;20575;-68
2023/05/19 12:08:05;;;;;;;4.25;2.53;;;19.70;86.90;;;;;;5073366;28;20216;-67
2023/05/19 12:10:34;;;;;;;7.10;2.60;;;19.40;87.80;;;;;;5073170;28;20212;-67
2023/05/19 12:13:03;;;;;;;8.05;2.95;;;19.10;89.10;;;;;;5073775;28;20231;-67
2023/05/19 12:15:32;;;;;;;7.22;2.50;;;18.80;89.50;;;;;;5073583;28;20228;-67
2023/05/19 12:18:00;;;;;;;4.63;2.53;;;18.70;90.00;;;;;;5073364;28;20216;-69
2023/05/19 12:20:30;;;;;;;6.38;2.63;;;18.80;90.30;;;;;;5073250;28;20209;-67
2023/05/19 12:22:57;;;;;;;7.88;2.88;;;18.70;90.60;;;;;;5072813;28;20676;-68
2023/05/19 12:25:25;;;;;;;6.35;2.20;;;18.70;90.90;;;;;;5073287;28;20225;-67
2023/05/19 12:27:54;;;;;;;7.85;2.97;;;18.70;90.80;;;;;;5073142;28;20205;-67
2023/05/19 12:30:27;;;;;;;7.45;2.85;;;18.60;90.70;;;;;;5073184;28;20232;-67
2023/05/19 12:32:55;;;;;;;6.78;2.30;;;18.60;91.20;;;;;;5072859;28;20289;-67
2023/05/19 12:35:25;;;;;;;6.63;2.80;;;18.60;91.10;;;;;;5072808;28;20278;-67
2023/05/19 12:37:52;;;;;;;4.05;2.60;;;18.80;91.00;;;;;;5073035;28;20204;-67
2023/05/19 12:40:18;;;;;;;5.90;3.53;;;18.80;90.90;;;;;;5073236;28;20201;-67
2023/05/19 12:42:47;;;;;;;9.75;4.22;;;18.90;91.00;;;;;;5072655;28;20691;-68
2023/05/19 12:45:14;;;;;;;6.07;3.28;;;18.90;91.00;;;;;;5073084;28;20225;-67
2023/05/19 12:47:47;;;;;;;8.20;3.33;;;19.20;90.90;;;;;;5072788;28;20262;-68
2023/05/19 12:50:13;;;;;;;6.80;2.85;;;19.20;90.90;;;;;;5073166;28;20213;-69
2023/05/19 12:52:42;;;;;;;7.03;2.75;;;19.10;90.40;;;;;;5072631;28;20224;-68